createdAt,value
2018-10-17T04:12:16.292Z,10.50
2018-10-17T04:14:43.692Z,9.40
2018-10-17T04:17:11.181Z,9.30
2018-10-17T04:19:38.534Z,9.20
2018-10-17T04:22:06.116Z,9.30
2018-10-17T04:24:33.659Z,9.40
2018-10-17T04:27:01.058Z,9.40
2018-10-17T04:29:28.504Z,9.30
2018-10-17T04:31:55.930Z,9.40
2018-10-17T04:34:23.338Z,9.30
2018-10-17T04:36:50.826Z,9.30
2018-10-17T04:39:18.225Z,9.40
2018-10-17T04:41:45.623Z,9.40
2018-10-17T04:44:13.049Z,9.40
2018-10-17T04:46:40.537Z,9.40
2018-10-17T04:49:08.612Z,9.50
2018-10-17T04:51:36.083Z,9.70
2018-10-17T04:54:03.606Z,9.80
2018-10-17T04:56:31.079Z,9.70
2018-10-17T04:58:58.593Z,9.70
2018-10-17T05:01:25.988Z,9.70
2018-10-17T05:03:53.437Z,9.70
2018-10-17T05:06:20.852Z,9.60
2018-10-17T05:08:48.261Z,9.70
2018-10-17T05:11:15.724Z,9.80
2018-10-17T05:13:43.077Z,9.90
2018-10-17T05:16:10.502Z,10.00
2018-10-17T05:18:37.871Z,10.00
2018-10-17T05:21:05.301Z,10.00
2018-10-17T05:23:32.885Z,10.00
2018-10-17T05:26:00.296Z,10.00
2018-10-17T05:28:27.729Z,10.10
2018-10-17T05:30:55.142Z,10.20
2018-10-17T05:33:22.590Z,10.20
2018-10-17T05:35:50.006Z,10.30
2018-10-17T05:38:17.410Z,10.30
2018-10-17T05:40:44.861Z,10.30
2018-10-17T05:43:12.573Z,10.30
2018-10-17T05:45:39.960Z,10.30
2018-10-17T05:48:07.369Z,10.40
2018-10-17T05:50:34.760Z,10.40
2018-10-17T05:53:02.203Z,10.30
2018-10-17T05:55:29.669Z,10.40
2018-10-17T05:57:57.301Z,10.40
2018-10-17T06:00:24.705Z,10.30
2018-10-17T06:02:52.148Z,10.30
2018-10-17T06:05:19.544Z,10.40
2018-10-17T06:07:46.940Z,10.40
2018-10-17T06:10:14.438Z,10.40
2018-10-17T06:12:41.850Z,10.20
2018-10-17T06:15:09.302Z,10.20
2018-10-17T06:17:36.676Z,10.20
2018-10-17T06:20:05.034Z,10.20
2018-10-17T06:22:32.444Z,10.30
2018-10-17T06:24:59.865Z,10.30
2018-10-17T06:27:27.302Z,10.40
2018-10-17T06:29:54.762Z,10.40
2018-10-17T06:32:22.170Z,10.30
2018-10-17T06:34:49.640Z,10.20
2018-10-17T06:37:17.095Z,10.20
2018-10-17T06:39:44.522Z,10.10
2018-10-17T06:42:11.928Z,10.10
2018-10-17T06:44:39.373Z,10.00
2018-10-17T06:47:07.050Z,10.00
2018-10-17T06:49:34.377Z,10.10
2018-10-17T06:52:01.791Z,10.10
2018-10-17T06:54:29.308Z,10.10
2018-10-17T06:56:56.673Z,10.10
2018-10-17T06:59:24.128Z,10.30
2018-10-17T07:01:51.658Z,10.20
2018-10-17T07:04:19.153Z,10.30
2018-10-17T07:06:46.582Z,10.20
2018-10-17T07:09:14.003Z,10.40
2018-10-17T07:11:41.469Z,10.60
2018-10-17T07:14:08.893Z,10.70
2018-10-17T07:16:36.304Z,10.70
2018-10-17T07:19:04.136Z,10.80
2018-10-17T07:21:31.684Z,10.80
2018-10-17T07:23:59.097Z,10.70
2018-10-17T07:26:26.477Z,10.60
2018-10-17T07:28:54.495Z,10.50
2018-10-17T07:31:21.811Z,10.60
2018-10-17T07:33:49.201Z,10.70
2018-10-17T07:36:16.708Z,10.80
2018-10-17T07:38:44.064Z,10.70
2018-10-17T07:41:11.441Z,10.70
2018-10-17T07:43:38.822Z,10.90
2018-10-17T07:46:06.286Z,10.90
2018-10-17T07:48:33.763Z,10.70
2018-10-17T07:51:01.453Z,10.60
2018-10-17T07:53:28.956Z,10.60
2018-10-17T07:55:56.337Z,10.60
2018-10-17T07:58:23.723Z,10.80
2018-10-17T08:00:51.153Z,10.80
2018-10-17T08:03:18.585Z,10.90
2018-10-17T08:05:46.071Z,11.00
2018-10-17T08:08:13.484Z,11.00
2018-10-17T08:10:40.893Z,10.90
2018-10-17T08:13:08.357Z,10.90
2018-10-17T08:15:35.768Z,10.90
2018-10-17T08:18:03.264Z,11.10
2018-10-17T08:20:30.659Z,11.40
2018-10-17T08:22:58.077Z,11.60
2018-10-17T08:25:25.471Z,11.90
2018-10-17T08:27:52.882Z,12.20
2018-10-17T08:30:20.336Z,12.20
2018-10-17T08:32:47.748Z,11.90
2018-10-17T08:35:15.166Z,11.80
2018-10-17T08:37:42.973Z,11.80
2018-10-17T08:40:10.053Z,11.70
2018-10-17T08:42:37.433Z,11.80
2018-10-17T08:45:05.274Z,12.00
2018-10-17T08:47:32.681Z,12.00
2018-10-17T08:50:00.122Z,11.90
2018-10-17T08:52:27.480Z,11.90
2018-10-17T08:54:54.873Z,11.90
2018-10-17T08:57:22.258Z,11.90
2018-10-17T08:59:49.665Z,12.00
2018-10-17T09:02:17.222Z,12.00
2018-10-17T09:04:44.544Z,12.40
2018-10-17T09:07:11.995Z,12.90
2018-10-17T09:09:39.437Z,13.10
2018-10-17T09:12:06.862Z,13.50
2018-10-17T09:14:34.234Z,13.80
2018-10-17T09:17:01.660Z,13.20
2018-10-17T09:19:29.229Z,13.00
2018-10-17T09:21:56.911Z,13.20
2018-10-17T09:24:23.926Z,13.40
2018-10-17T09:26:51.337Z,13.20
2018-10-17T09:29:18.749Z,12.90
2018-10-17T09:31:46.156Z,13.10
2018-10-17T09:34:13.601Z,13.10
2018-10-17T09:36:41.028Z,13.30
2018-10-17T09:39:09.919Z,13.70
2018-10-17T09:41:37.361Z,13.50
2018-10-17T09:44:04.806Z,13.60
2018-10-17T09:46:32.267Z,13.40
2018-10-17T09:48:59.720Z,13.20
2018-10-17T09:51:27.121Z,13.10
2018-10-17T09:53:54.547Z,13.10
2018-10-17T09:56:22.008Z,13.10
2018-10-17T09:58:49.394Z,13.10
2018-10-17T10:01:22.504Z,13.20
2018-10-17T10:03:49.912Z,13.50
2018-10-17T10:06:17.417Z,13.80
2018-10-17T10:08:44.801Z,13.90
2018-10-17T10:11:12.221Z,13.90
2018-10-17T10:13:39.608Z,13.70
2018-10-17T10:16:07.031Z,13.70
2018-10-17T10:18:34.477Z,13.60
2018-10-17T10:21:01.934Z,13.50
2018-10-17T10:23:29.404Z,13.60
2018-10-17T10:25:56.814Z,14.00
2018-10-17T10:28:24.398Z,14.40
2018-10-17T10:30:51.726Z,14.30
2018-10-17T10:33:19.141Z,14.50
2018-10-17T10:35:46.536Z,14.70
2018-10-17T10:38:13.959Z,14.40
2018-10-17T10:40:41.426Z,14.50
2018-10-17T10:43:08.841Z,14.60
2018-10-17T10:45:36.339Z,14.80
2018-10-17T10:48:03.753Z,14.80
2018-10-17T10:50:31.149Z,14.60
2018-10-17T10:52:58.592Z,14.60
2018-10-17T10:55:26.006Z,14.70
2018-10-17T10:57:53.429Z,14.50
2018-10-17T11:00:20.894Z,14.30
2018-10-17T11:02:48.233Z,14.20
2018-10-17T11:05:15.815Z,14.00
2018-10-17T11:07:43.105Z,13.80
2018-10-17T11:10:10.568Z,13.90
2018-10-17T11:12:37.999Z,13.90
2018-10-17T11:15:06.393Z,14.00
2018-10-17T11:17:33.819Z,14.00
2018-10-17T11:20:01.228Z,14.20
2018-10-17T11:22:28.676Z,14.50
2018-10-17T11:24:56.145Z,14.60
2018-10-17T11:27:23.596Z,14.60
2018-10-17T11:29:51.040Z,14.90
2018-10-17T11:32:18.438Z,15.00
2018-10-17T11:34:45.873Z,15.30
2018-10-17T11:37:13.307Z,15.50
2018-10-17T11:39:40.681Z,15.90
2018-10-17T11:42:08.131Z,15.80
2018-10-17T11:44:35.519Z,16.00
2018-10-17T11:47:02.970Z,16.20
2018-10-17T11:49:30.352Z,16.40
2018-10-17T11:51:57.779Z,16.70
2018-10-17T11:54:25.184Z,16.50
2018-10-17T11:56:52.671Z,16.60
2018-10-17T11:59:20.130Z,16.60
2018-10-17T12:01:47.471Z,16.60
2018-10-17T12:04:15.114Z,16.60
2018-10-17T12:06:42.289Z,16.90
2018-10-17T12:09:10.083Z,16.70
2018-10-17T12:11:37.500Z,16.50
2018-10-17T12:14:05.238Z,16.50
2018-10-17T12:16:32.661Z,16.70
2018-10-17T12:19:00.134Z,16.90
2018-10-17T12:21:27.631Z,16.70
2018-10-17T12:23:55.062Z,16.50
2018-10-17T12:26:22.438Z,16.70
2018-10-17T12:28:50.188Z,16.70
2018-10-17T12:31:17.520Z,16.80
2018-10-17T12:33:44.919Z,16.70
2018-10-17T12:36:12.362Z,16.50
2018-10-17T12:38:39.786Z,16.40
2018-10-17T12:41:07.372Z,16.50
2018-10-17T12:43:34.645Z,16.70
2018-10-17T12:46:02.113Z,16.60
2018-10-17T12:48:29.553Z,16.40
2018-10-17T12:50:56.999Z,16.30
2018-10-17T12:53:24.406Z,16.10
2018-10-17T12:55:51.809Z,15.80
2018-10-17T12:58:19.229Z,15.80
2018-10-17T13:00:46.632Z,15.80
2018-10-17T13:03:14.038Z,15.90
2018-10-17T13:05:41.469Z,15.90
2018-10-17T13:08:08.860Z,16.10
2018-10-17T13:10:36.317Z,16.20
2018-10-17T13:13:03.787Z,16.20
2018-10-17T13:15:31.200Z,16.10
2018-10-17T13:17:58.659Z,16.00
2018-10-17T13:20:26.046Z,16.10
2018-10-17T13:22:53.442Z,16.20
2018-10-17T13:25:20.873Z,16.10
2018-10-17T13:27:48.289Z,15.90
2018-10-17T13:30:15.724Z,15.80
2018-10-17T13:32:43.186Z,15.80
2018-10-17T13:35:10.661Z,15.80
2018-10-17T13:37:38.006Z,15.80
2018-10-17T13:40:05.528Z,15.70
2018-10-17T13:42:32.937Z,15.70
2018-10-17T13:45:00.619Z,15.70
2018-10-17T13:47:28.043Z,15.60
2018-10-17T13:49:56.112Z,15.60
2018-10-17T13:52:23.576Z,15.70
2018-10-17T13:54:51.016Z,15.70
2018-10-17T13:57:18.399Z,15.70
2018-10-17T13:59:45.871Z,15.70
2018-10-17T14:02:13.245Z,15.60
2018-10-17T14:04:40.753Z,15.60
2018-10-17T14:07:08.247Z,15.60
2018-10-17T14:09:35.606Z,15.50
2018-10-17T14:12:03.161Z,15.50
2018-10-17T14:14:30.562Z,15.40
2018-10-17T14:16:57.937Z,15.50
2018-10-17T14:19:25.397Z,15.40
2018-10-17T14:21:52.803Z,15.40
2018-10-17T14:24:20.248Z,15.40
2018-10-17T14:26:47.727Z,15.40
2018-10-17T14:29:15.142Z,15.40
2018-10-17T14:31:42.529Z,15.40
2018-10-17T14:34:10.081Z,15.30
2018-10-17T14:36:37.494Z,15.30
2018-10-17T14:39:07.450Z,15.30
2018-10-17T14:41:34.778Z,15.20
2018-10-17T14:44:02.185Z,15.20
2018-10-17T14:46:29.638Z,15.10
2018-10-17T14:48:57.017Z,15.00
2018-10-17T14:51:24.484Z,15.00
2018-10-17T14:53:51.881Z,14.90
2018-10-17T14:56:19.322Z,14.80
2018-10-17T14:58:46.779Z,14.70
2018-10-17T15:01:14.183Z,14.70
2018-10-17T15:03:41.649Z,14.60
2018-10-17T15:06:09.069Z,14.40
2018-10-17T15:08:36.564Z,14.40
2018-10-17T15:11:04.495Z,14.20
2018-10-17T15:13:31.669Z,14.00
2018-10-17T15:15:59.041Z,13.90
2018-10-17T15:18:26.492Z,13.90
2018-10-17T15:20:53.905Z,13.90
2018-10-17T15:23:21.397Z,14.00
2018-10-17T15:25:48.814Z,14.00
2018-10-17T15:28:16.242Z,13.90
2018-10-17T15:30:43.627Z,13.80
2018-10-17T15:33:11.135Z,13.70
2018-10-17T15:35:38.456Z,13.70
2018-10-17T15:38:05.929Z,13.70
2018-10-17T15:40:33.418Z,13.50
2018-10-17T15:43:00.857Z,13.40
2018-10-17T15:45:28.269Z,13.20
2018-10-17T15:47:55.760Z,12.90
2018-10-17T15:50:23.180Z,12.70
2018-10-17T15:52:50.616Z,12.60
2018-10-17T15:55:18.046Z,12.50
2018-10-17T15:57:45.425Z,12.50
2018-10-17T16:00:13.024Z,12.40
2018-10-17T16:02:40.471Z,12.40
2018-10-17T16:05:09.193Z,12.30
2018-10-17T16:07:36.781Z,12.20
2018-10-17T16:10:04.570Z,12.20
2018-10-17T16:12:31.969Z,12.20
2018-10-17T16:14:59.501Z,12.20
2018-10-17T16:17:26.937Z,12.10
2018-10-17T16:19:54.425Z,12.00
2018-10-17T16:22:21.893Z,12.00
2018-10-17T16:24:49.344Z,12.00
2018-10-17T16:27:16.753Z,11.90
2018-10-17T16:29:44.179Z,11.90
2018-10-17T16:32:11.643Z,11.80
2018-10-17T16:34:39.018Z,11.80
2018-10-17T16:37:06.449Z,11.70
2018-10-17T16:39:33.942Z,11.60
2018-10-17T16:42:01.400Z,11.50
2018-10-17T16:44:28.808Z,11.50
2018-10-17T16:46:56.270Z,11.50
2018-10-17T16:49:23.837Z,11.40
2018-10-17T16:51:51.334Z,11.30
2018-10-17T16:54:18.776Z,11.30
2018-10-17T16:56:46.252Z,11.30
2018-10-17T16:59:13.633Z,11.30
2018-10-17T17:01:41.056Z,11.20
2018-10-17T17:04:08.546Z,11.20
2018-10-17T17:06:35.966Z,11.10
2018-10-17T17:09:05.542Z,11.00
2018-10-17T17:11:32.900Z,10.80
2018-10-17T17:14:00.298Z,10.70
2018-10-17T17:16:27.969Z,10.60
2018-10-17T17:18:55.301Z,10.60
2018-10-17T17:21:22.722Z,10.50
2018-10-17T17:23:50.141Z,10.40
2018-10-17T17:26:17.527Z,10.30
2018-10-17T17:28:44.971Z,10.20
2018-10-17T17:31:12.449Z,10.20
2018-10-17T17:33:39.860Z,10.20
2018-10-17T17:36:07.286Z,10.20
2018-10-17T17:38:34.672Z,10.20
2018-10-17T17:41:02.106Z,10.10
2018-10-17T17:43:29.512Z,10.10
2018-10-17T17:45:57.019Z,10.00
2018-10-17T17:48:24.402Z,9.90
2018-10-17T17:50:51.801Z,9.80
2018-10-17T17:53:19.349Z,9.80
2018-10-17T17:55:46.865Z,9.70
2018-10-17T17:58:14.368Z,9.60
2018-10-17T18:00:41.935Z,9.30
2018-10-17T18:03:09.489Z,8.80
2018-10-17T18:05:37.029Z,8.50
2018-10-17T18:08:04.702Z,8.70
2018-10-17T18:10:32.376Z,8.80
2018-10-17T18:12:59.920Z,8.80
2018-10-17T18:15:27.581Z,8.80
2018-10-17T18:17:55.078Z,8.70
2018-10-17T18:20:22.778Z,8.70
2018-10-17T18:22:50.355Z,8.70
2018-10-17T18:25:17.913Z,8.70
2018-10-17T18:27:46.310Z,8.80
2018-10-17T18:30:13.720Z,8.80
2018-10-17T18:32:41.179Z,8.80
2018-10-17T18:35:08.798Z,8.70
2018-10-17T18:37:36.537Z,8.70
2018-10-17T18:40:04.829Z,8.70
2018-10-17T18:42:32.434Z,8.70
2018-10-17T18:45:00.071Z,8.70
2018-10-17T18:47:28.110Z,8.70
2018-10-17T18:49:55.522Z,8.70
2018-10-17T18:52:23.101Z,8.70
2018-10-17T18:54:50.856Z,8.70
2018-10-17T18:57:20.449Z,8.60
2018-10-17T18:59:48.831Z,8.70
2018-10-17T19:02:16.284Z,8.70
2018-10-17T19:04:43.693Z,8.60
2018-10-17T19:07:11.112Z,8.60
2018-10-17T19:09:38.500Z,8.50
2018-10-17T19:12:05.973Z,8.50
2018-10-17T19:14:33.517Z,8.50
2018-10-17T19:17:00.978Z,8.40
2018-10-17T19:19:28.431Z,8.40
2018-10-17T19:21:55.918Z,8.40
2018-10-17T19:24:23.314Z,8.40
2018-10-17T19:26:50.697Z,8.40
2018-10-17T19:29:18.106Z,8.40
2018-10-17T19:31:45.493Z,8.40
2018-10-17T19:34:12.898Z,8.40
2018-10-17T19:36:40.418Z,8.30
2018-10-17T19:39:09.502Z,8.20
2018-10-17T19:41:36.905Z,8.30
2018-10-17T19:44:04.324Z,8.30
2018-10-17T19:46:31.721Z,8.30
2018-10-17T19:48:59.145Z,8.40
2018-10-17T19:51:26.529Z,8.30
2018-10-17T19:53:53.929Z,8.20
2018-10-17T19:56:21.332Z,8.20
2018-10-17T19:58:48.784Z,8.20
2018-10-17T20:01:16.177Z,8.20
2018-10-17T20:03:43.569Z,8.20
2018-10-17T20:06:11.013Z,8.10
2018-10-17T20:08:38.475Z,7.90
2018-10-17T20:11:05.973Z,7.80
2018-10-17T20:13:33.383Z,7.70
2018-10-17T20:16:00.798Z,7.70
2018-10-17T20:18:28.233Z,7.80
2018-10-17T20:20:55.688Z,7.80
2018-10-17T20:23:23.161Z,7.80
2018-10-17T20:25:50.549Z,7.80
2018-10-17T20:28:17.985Z,7.80
2018-10-17T20:30:45.394Z,7.70
2018-10-17T20:33:13.014Z,7.70
2018-10-17T20:35:40.355Z,7.70
2018-10-17T20:38:07.773Z,7.70
2018-10-17T20:40:35.294Z,7.70
2018-10-17T20:43:02.726Z,7.70
2018-10-17T20:45:30.138Z,7.60
2018-10-17T20:47:57.600Z,7.40
2018-10-17T20:50:25.058Z,7.40
2018-10-17T20:52:52.510Z,7.50
2018-10-17T20:55:20.015Z,7.50
2018-10-17T20:57:47.383Z,7.40
2018-10-17T21:00:14.877Z,7.30
2018-10-17T21:02:42.296Z,7.30
2018-10-17T21:05:09.716Z,7.30
2018-10-17T21:07:37.137Z,7.30
2018-10-17T21:10:05.400Z,7.30
2018-10-17T21:12:32.864Z,7.40
2018-10-17T21:15:00.264Z,7.50
2018-10-17T21:17:27.646Z,7.50
2018-10-17T21:19:55.087Z,7.40
2018-10-17T21:22:22.497Z,7.50
2018-10-17T21:24:49.961Z,7.60
2018-10-17T21:27:17.380Z,7.60
2018-10-17T21:29:44.833Z,7.60
2018-10-17T21:32:12.411Z,7.70
2018-10-17T21:34:39.764Z,7.80
2018-10-17T21:37:07.164Z,7.80
2018-10-17T21:39:34.561Z,7.80
2018-10-17T21:42:01.996Z,8.00
2018-10-17T21:44:29.425Z,8.00
2018-10-17T21:46:56.902Z,8.00
2018-10-17T21:49:24.293Z,8.00
2018-10-17T21:51:51.710Z,8.00
2018-10-17T21:54:19.163Z,7.90
2018-10-17T21:56:46.556Z,7.90
2018-10-17T21:59:13.942Z,7.90
2018-10-17T22:01:41.398Z,8.10
2018-10-17T22:04:08.805Z,8.20
2018-10-17T22:06:36.244Z,8.20
2018-10-17T22:09:05.975Z,8.20
2018-10-17T22:11:33.365Z,8.10
2018-10-17T22:14:00.828Z,8.00
2018-10-17T22:16:34.065Z,8.00
2018-10-17T22:19:01.531Z,8.00
2018-10-17T22:21:28.919Z,8.00
2018-10-17T22:23:56.345Z,8.10
2018-10-17T22:26:23.778Z,8.10
2018-10-17T22:28:51.229Z,8.00
2018-10-17T22:31:18.645Z,8.00
2018-10-17T22:33:46.096Z,7.90
2018-10-17T22:36:13.550Z,7.90
2018-10-17T22:38:40.917Z,7.80
2018-10-17T22:41:08.415Z,7.70
2018-10-17T22:43:35.778Z,7.80
2018-10-17T22:46:03.205Z,7.90
2018-10-17T22:48:30.605Z,7.80
2018-10-17T22:50:58.021Z,7.90
2018-10-17T22:53:25.437Z,8.10
2018-10-17T22:55:52.867Z,8.00
2018-10-17T22:58:20.299Z,8.00
2018-10-17T23:00:48.055Z,8.00
2018-10-17T23:03:15.510Z,7.90
2018-10-17T23:05:42.958Z,7.70
2018-10-17T23:08:10.504Z,7.60
2018-10-17T23:10:37.824Z,7.40
2018-10-17T23:13:05.465Z,7.40
2018-10-17T23:15:32.890Z,7.50
2018-10-17T23:18:00.360Z,7.50
2018-10-17T23:20:27.818Z,7.40
2018-10-17T23:22:55.209Z,7.30
2018-10-17T23:25:22.668Z,7.30
2018-10-17T23:27:50.101Z,7.20
2018-10-17T23:30:17.537Z,7.20
2018-10-17T23:32:44.994Z,7.10
2018-10-17T23:35:12.389Z,7.00
2018-10-17T23:37:39.798Z,6.90
2018-10-17T23:40:07.840Z,7.00
2018-10-17T23:42:35.305Z,7.10
2018-10-17T23:45:02.724Z,7.20
2018-10-17T23:47:30.157Z,7.10
2018-10-17T23:49:57.645Z,7.10
2018-10-17T23:52:25.007Z,7.10
2018-10-17T23:54:52.424Z,7.00
2018-10-17T23:57:19.854Z,7.00
2018-10-17T23:59:47.273Z,6.90
